Terminal Aerodrome Forecast
Issued by NWS

Home | Current Version | Previous Version | Text Only | Print | Product List | Glossary On
Versions: 1 2 3 4 5 6 7 8 9 10 11 12 13 14 15 16 17 18 19 20 21 22 23
000
FTUS41 KOKX 262300 RRA
TAFSWF
TAF
KSWF 262357Z 2700/2806 04012G20KT 2SM -SN BR OVC020
     FM270400 04017G25KT 1SM -SN OVC010
     FM270700 01018G30KT 1/2SM SN FZFG VV005
     FM271500 34017G30KT 1/2SM SN FZFG VV008
     FM272100 33016G28KT 2SM -SN OVC020
     FM280200 33015G26KT 2SM -SHSN OVC030
      AMD NOT SKED=

USA.gov is the U.S. government's official web portal to all federal, state and local government web resources and services.